createdAt,value
2018-11-25T00:00:16.153Z,34.17
2018-11-25T00:02:44.794Z,37.20
2018-11-25T00:05:13.431Z,32.13
2018-11-25T00:07:42.041Z,37.07
2018-11-25T00:10:10.710Z,31.60
2018-11-25T00:12:40.317Z,33.20
2018-11-25T00:15:09.686Z,28.87
2018-11-25T00:17:38.362Z,30.67
2018-11-25T00:20:10.121Z,31.23
2018-11-25T00:22:39.347Z,32.57
2018-11-25T00:25:10.413Z,34.47
2018-11-25T00:27:39.151Z,35.27
2018-11-25T00:30:14.166Z,35.80
2018-11-25T00:32:42.840Z,45.20
2018-11-25T00:35:12.546Z,40.77
2018-11-25T00:37:47.987Z,40.33
2018-11-25T00:40:17.149Z,41.20
2018-11-25T00:42:46.154Z,42.43
2018-11-25T00:45:18.169Z,40.37
2018-11-25T00:47:46.992Z,39.40
2018-11-25T00:50:15.853Z,35.57
2018-11-25T00:52:45.099Z,35.20
2018-11-25T00:55:14.915Z,31.80
2018-11-25T00:57:43.557Z,33.37
2018-11-25T01:00:16.248Z,29.77
2018-11-25T01:02:45.199Z,38.07
2018-11-25T01:05:14.267Z,35.47
2018-11-25T01:07:42.942Z,35.97
2018-11-25T01:10:14.422Z,41.30
2018-11-25T01:12:43.191Z,41.37
2018-11-25T01:15:12.948Z,39.10
2018-11-25T01:17:41.617Z,35.23
2018-11-25T01:20:11.807Z,39.53
2018-11-25T01:22:40.463Z,38.87
2018-11-25T01:25:10.280Z,35.77
2018-11-25T01:27:39.004Z,32.37
2018-11-25T01:30:14.749Z,35.80
2018-11-25T01:32:43.420Z,32.77
2018-11-25T01:35:12.736Z,30.23
2018-11-25T01:37:41.577Z,32.90
2018-11-25T01:40:12.525Z,31.13
2018-11-25T01:42:41.204Z,31.07
2018-11-25T01:45:13.023Z,30.43
2018-11-25T01:47:41.661Z,28.07
2018-11-25T01:50:11.665Z,28.23
2018-11-25T01:52:40.398Z,28.93
2018-11-25T01:55:10.406Z,28.77
2018-11-25T01:57:39.095Z,29.90
2018-11-25T02:00:18.895Z,26.87
2018-11-25T02:02:47.598Z,29.10
2018-11-25T02:05:16.344Z,30.23
2018-11-25T02:07:44.987Z,32.27
2018-11-25T02:10:18.452Z,29.23
2018-11-25T02:12:47.213Z,32.83
2018-11-25T02:15:16.521Z,32.83
2018-11-25T02:17:45.193Z,35.33
2018-11-25T02:20:18.163Z,37.67
2018-11-25T02:22:46.824Z,33.53
2018-11-25T02:25:15.534Z,35.00
2018-11-25T02:27:44.205Z,33.03
2018-11-25T02:30:14.394Z,39.37
2018-11-25T02:32:43.183Z,37.87
2018-11-25T02:35:12.704Z,39.07
2018-11-25T02:37:41.367Z,36.50
2018-11-25T02:40:11.365Z,40.60
2018-11-25T02:42:40.101Z,39.60
2018-11-25T02:45:12.839Z,39.60
2018-11-25T02:47:41.510Z,35.57
2018-11-25T02:50:24.968Z,38.03
2018-11-25T02:52:54.184Z,37.87
2018-11-25T02:55:24.063Z,39.20
2018-11-25T02:57:52.797Z,32.57
2018-11-25T03:00:21.520Z,32.77
2018-11-25T03:02:50.180Z,33.37
2018-11-25T03:05:18.909Z,30.87
2018-11-25T03:07:47.582Z,32.43
2018-11-25T03:10:16.318Z,34.07
2018-11-25T03:12:45.036Z,32.57
2018-11-25T03:15:15.644Z,37.57
2018-11-25T03:17:44.369Z,35.43
2018-11-25T03:20:15.063Z,34.97
2018-11-25T03:22:43.781Z,40.20
2018-11-25T03:25:13.738Z,36.20
2018-11-25T03:27:42.406Z,35.23
2018-11-25T03:30:21.621Z,32.50
2018-11-25T03:32:52.340Z,32.87
2018-11-25T03:35:21.105Z,34.30
2018-11-25T03:37:49.897Z,36.37
2018-11-25T03:40:19.456Z,37.30
2018-11-25T03:42:48.193Z,34.10
2018-11-25T03:45:17.863Z,37.90
2018-11-25T03:47:46.837Z,37.57
2018-11-25T03:50:15.902Z,38.03
2018-11-25T03:52:44.573Z,36.33
2018-11-25T03:55:14.987Z,34.50
2018-11-25T03:57:43.636Z,37.67
2018-11-25T04:00:13.710Z,39.63
2018-11-25T04:02:42.385Z,39.20
2018-11-25T04:05:12.279Z,46.80
2018-11-25T04:07:40.917Z,40.43
2018-11-25T04:10:11.703Z,42.23
2018-11-25T04:12:40.371Z,39.10
2018-11-25T04:15:14.522Z,41.40
2018-11-25T04:17:43.284Z,36.60
2018-11-25T04:20:14.162Z,38.47
2018-11-25T04:22:42.956Z,39.70
2018-11-25T04:25:12.197Z,41.07
2018-11-25T04:27:40.865Z,37.40
2018-11-25T04:30:24.354Z,38.53
2018-11-25T04:32:53.029Z,39.53
2018-11-25T04:35:21.699Z,39.60
2018-11-25T04:37:50.336Z,38.30
2018-11-25T04:40:19.333Z,43.30
2018-11-25T04:42:48.080Z,42.90
2018-11-25T04:45:17.591Z,39.10
2018-11-25T04:47:46.875Z,42.30
2018-11-25T04:50:18.373Z,37.37
2018-11-25T04:52:47.094Z,38.00
2018-11-25T04:55:16.105Z,39.60
2018-11-25T04:57:49.640Z,42.87
2018-11-25T05:00:18.591Z,41.90
2018-11-25T05:02:47.341Z,45.07
2018-11-25T05:05:16.375Z,50.20
2018-11-25T05:07:45.067Z,47.87
2018-11-25T05:10:14.467Z,48.67
2018-11-25T05:12:43.160Z,52.77
2018-11-25T05:15:14.839Z,46.20
2018-11-25T05:17:43.515Z,47.40
2018-11-25T05:20:12.989Z,50.77
2018-11-25T05:22:41.643Z,56.33
2018-11-25T05:25:12.388Z,48.40
2018-11-25T05:27:41.091Z,44.90
2018-11-25T05:30:12.922Z,52.07
2018-11-25T05:32:41.890Z,48.80
2018-11-25T05:35:11.850Z,48.60
2018-11-25T05:37:40.509Z,43.07
2018-11-25T05:40:11.722Z,42.10
2018-11-25T05:42:40.373Z,39.67
2018-11-25T05:45:10.923Z,48.80
2018-11-25T05:47:39.650Z,55.47
2018-11-25T05:50:11.629Z,65.30
2018-11-25T05:52:40.319Z,62.20
2018-11-25T05:55:10.060Z,60.30
2018-11-25T05:57:38.770Z,52.23
2018-11-25T06:00:15.569Z,55.43
2018-11-25T06:02:44.234Z,53.60
2018-11-25T06:05:13.024Z,60.17
2018-11-25T06:07:41.699Z,52.80
2018-11-25T06:10:12.512Z,56.43
2018-11-25T06:12:41.287Z,61.37
2018-11-25T06:15:12.785Z,62.00
2018-11-25T06:17:41.410Z,75.17
2018-11-25T06:20:17.681Z,74.53
2018-11-25T06:22:46.704Z,78.17
2018-11-25T06:25:18.343Z,78.73
2018-11-25T06:27:46.951Z,78.57
2018-11-25T06:30:17.438Z,72.37
2018-11-25T06:32:46.194Z,75.30
2018-11-25T06:35:15.897Z,76.03
2018-11-25T06:37:44.578Z,66.43
2018-11-25T06:40:14.286Z,72.47
2018-11-25T06:42:42.978Z,58.80
2018-11-25T06:45:17.958Z,58.63
2018-11-25T06:47:46.603Z,53.97
2018-11-25T06:50:15.297Z,42.70
2018-11-25T06:52:43.933Z,39.93
2018-11-25T06:55:13.202Z,45.07
2018-11-25T06:57:41.814Z,48.60
2018-11-25T07:00:25.960Z,48.13
2018-11-25T07:02:55.110Z,41.53
2018-11-25T07:05:23.835Z,41.77
2018-11-25T07:07:52.521Z,44.17
2018-11-25T07:10:22.178Z,44.13
2018-11-25T07:12:52.762Z,44.43
2018-11-25T07:15:21.427Z,45.07
2018-11-25T07:17:50.068Z,50.83
2018-11-25T07:20:19.220Z,51.67
2018-11-25T07:22:47.918Z,47.47
2018-11-25T07:25:23.299Z,53.00
2018-11-25T07:27:52.329Z,49.20
2018-11-25T07:30:24.977Z,48.63
2018-11-25T07:32:53.672Z,50.80
2018-11-25T07:35:23.048Z,51.30
2018-11-25T07:37:51.714Z,48.93
2018-11-25T07:40:21.104Z,55.10
2018-11-25T07:42:49.991Z,66.27
2018-11-25T07:45:20.639Z,69.70
2018-11-25T07:47:49.339Z,68.97
2018-11-25T07:50:18.029Z,75.50
2018-11-25T07:52:47.522Z,74.33
2018-11-25T07:55:20.190Z,74.07
2018-11-25T07:57:49.522Z,72.67
2018-11-25T08:00:19.973Z,78.53
2018-11-25T08:02:48.649Z,79.17
2018-11-25T08:05:20.408Z,77.03
2018-11-25T08:07:49.070Z,66.77
2018-11-25T08:10:17.711Z,63.30
2018-11-25T08:12:46.743Z,66.33
2018-11-25T08:15:17.110Z,75.57
2018-11-25T08:17:45.820Z,70.93
2018-11-25T08:20:15.434Z,92.33
2018-11-25T08:22:44.182Z,102.47
2018-11-25T08:25:17.745Z,89.17
2018-11-25T08:27:46.368Z,80.53
2018-11-25T08:30:18.143Z,67.83
2018-11-25T08:32:46.921Z,65.83
2018-11-25T08:35:16.293Z,63.87
2018-11-25T08:37:45.011Z,62.50
2018-11-25T08:40:17.691Z,52.17
2018-11-25T08:42:46.379Z,52.37
2018-11-25T08:45:15.592Z,52.83
2018-11-25T08:47:44.428Z,47.67
2018-11-25T08:50:16.896Z,45.27
2018-11-25T08:52:46.422Z,45.70
2018-11-25T08:55:16.198Z,49.63
2018-11-25T08:57:44.972Z,48.33
2018-11-25T09:00:16.563Z,45.20
2018-11-25T09:02:45.255Z,47.37
2018-11-25T09:05:16.315Z,46.53
2018-11-25T09:07:45.116Z,50.43
2018-11-25T09:10:17.621Z,47.23
2018-11-25T09:12:55.179Z,57.53
2018-11-25T09:15:18.313Z,52.37
2018-11-25T09:17:47.007Z,53.47
2018-11-25T09:20:16.842Z,53.07
2018-11-25T09:22:45.507Z,50.80
2018-11-25T09:25:18.420Z,54.03
2018-11-25T09:27:47.098Z,53.93
2018-11-25T09:30:18.175Z,50.77
2018-11-25T09:32:46.844Z,52.03
2018-11-25T09:35:15.862Z,51.77
2018-11-25T09:37:44.474Z,50.33
2018-11-25T09:40:14.429Z,52.37
2018-11-25T09:42:43.134Z,49.23
2018-11-25T09:45:13.889Z,55.47
2018-11-25T09:47:42.894Z,51.43
2018-11-25T09:50:14.490Z,48.00
2018-11-25T09:52:43.224Z,44.37
2018-11-25T09:55:16.058Z,49.27
2018-11-25T09:57:46.861Z,48.63
2018-11-25T10:00:18.552Z,46.83
2018-11-25T10:02:47.888Z,48.73
2018-11-25T10:05:17.146Z,46.20
2018-11-25T10:07:45.845Z,50.87
2018-11-25T10:10:16.577Z,47.63
2018-11-25T10:12:45.258Z,49.07
2018-11-25T10:15:15.075Z,48.13
2018-11-25T10:17:44.010Z,52.00
2018-11-25T10:20:19.675Z,48.17
2018-11-25T10:22:48.410Z,46.90
2018-11-25T10:25:17.507Z,46.23
2018-11-25T10:27:46.250Z,45.10
2018-11-25T10:30:18.693Z,50.10
2018-11-25T10:32:48.581Z,48.20
2018-11-25T10:35:17.799Z,52.67
2018-11-25T10:37:46.790Z,48.97
2018-11-25T10:40:18.292Z,48.43
2018-11-25T10:42:47.014Z,56.00
2018-11-25T10:45:19.591Z,59.70
2018-11-25T10:47:48.375Z,52.00
2018-11-25T10:50:19.085Z,51.00
2018-11-25T10:52:48.007Z,52.70
2018-11-25T10:55:17.526Z,46.90
2018-11-25T10:57:47.095Z,51.33
2018-11-25T11:00:22.197Z,50.40
2018-11-25T11:02:56.243Z,49.50
2018-11-25T11:05:30.159Z,49.87
2018-11-25T11:07:59.131Z,46.57
2018-11-25T11:10:27.825Z,46.87
2018-11-25T11:12:56.477Z,42.63
2018-11-25T11:15:25.223Z,40.67
2018-11-25T11:17:54.059Z,41.57
2018-11-25T11:20:22.785Z,42.57
2018-11-25T11:22:51.470Z,43.23
2018-11-25T11:25:20.210Z,46.90
2018-11-25T11:27:48.844Z,46.23
2018-11-25T11:30:17.548Z,44.37
2018-11-25T11:32:47.612Z,42.63
2018-11-25T11:35:16.278Z,42.53
2018-11-25T11:37:44.899Z,43.60
2018-11-25T11:40:14.544Z,47.03
2018-11-25T11:42:43.240Z,48.67
2018-11-25T11:45:13.137Z,46.70
2018-11-25T11:47:42.296Z,45.43
2018-11-25T11:50:19.235Z,45.63
2018-11-25T11:52:47.865Z,45.67
2018-11-25T11:55:17.608Z,48.30
2018-11-25T11:57:46.848Z,45.67
2018-11-25T12:00:30.607Z,74.27
2018-11-25T12:02:59.617Z,44.50
2018-11-25T12:05:28.309Z,43.90
2018-11-25T12:07:56.992Z,38.30
2018-11-25T12:10:25.685Z,43.90
2018-11-25T12:12:54.704Z,47.03
2018-11-25T12:15:30.841Z,45.17
2018-11-25T12:17:55.445Z,47.43
2018-11-25T12:20:24.952Z,46.70
2018-11-25T12:22:54.407Z,49.40
2018-11-25T12:25:23.140Z,52.60
2018-11-25T12:27:51.824Z,54.83
2018-11-25T12:30:20.483Z,58.57
2018-11-25T12:32:50.198Z,54.37
2018-11-25T12:35:19.040Z,51.33
2018-11-25T12:37:48.080Z,52.53
2018-11-25T12:40:20.994Z,51.33
2018-11-25T12:42:56.161Z,55.57
2018-11-25T12:45:25.037Z,57.73
2018-11-25T12:47:53.682Z,61.60
2018-11-25T12:50:23.531Z,63.47
2018-11-25T12:52:52.249Z,73.47
2018-11-25T12:55:22.099Z,69.47
2018-11-25T12:57:50.721Z,75.17
2018-11-25T13:00:33.455Z,71.13
2018-11-25T13:03:02.142Z,54.60
2018-11-25T13:05:30.813Z,62.60
2018-11-25T13:07:59.490Z,62.63
2018-11-25T13:10:28.143Z,58.93
2018-11-25T13:12:56.879Z,45.37
2018-11-25T13:15:25.604Z,38.13
2018-11-25T13:17:54.299Z,32.87
2018-11-25T13:20:23.242Z,38.40
2018-11-25T13:22:51.892Z,31.77
2018-11-25T13:25:20.587Z,34.17
2018-11-25T13:27:50.203Z,28.43
2018-11-25T13:30:24.098Z,29.43
2018-11-25T13:32:55.030Z,31.30
2018-11-25T13:35:24.257Z,33.33
2018-11-25T13:37:52.937Z,31.13
2018-11-25T13:40:21.640Z,35.23
2018-11-25T13:42:50.658Z,34.07
2018-11-25T13:45:19.419Z,33.60
2018-11-25T13:47:48.066Z,29.73
2018-11-25T13:50:16.718Z,30.40
2018-11-25T13:52:45.421Z,33.80
2018-11-25T13:55:19.428Z,32.67
2018-11-25T13:57:48.113Z,30.40
2018-11-25T14:00:25.647Z,33.57
2018-11-25T14:02:54.785Z,30.87
2018-11-25T14:05:23.473Z,29.80
2018-11-25T14:07:52.151Z,31.73
2018-11-25T14:10:23.913Z,33.17
2018-11-25T14:12:52.574Z,35.53
2018-11-25T14:15:21.274Z,39.50
2018-11-25T14:17:49.962Z,38.17
2018-11-25T14:20:18.624Z,39.47
2018-11-25T14:22:47.265Z,31.67
2018-11-25T14:25:17.391Z,41.20
2018-11-25T14:27:46.889Z,44.87
2018-11-25T14:30:21.138Z,47.03
2018-11-25T14:32:49.760Z,46.90
2018-11-25T14:35:18.510Z,45.30
2018-11-25T14:37:47.203Z,41.27
2018-11-25T14:40:17.392Z,50.33
2018-11-25T14:42:46.121Z,48.90
2018-11-25T14:45:15.967Z,53.43
2018-11-25T14:47:44.609Z,53.40
2018-11-25T14:50:15.630Z,61.10
2018-11-25T14:52:45.603Z,60.77
2018-11-25T14:55:15.014Z,63.13
2018-11-25T14:57:43.809Z,64.33
2018-11-25T15:00:27.192Z,67.73
2018-11-25T15:03:04.210Z,72.07
2018-11-25T15:05:37.580Z,79.80
2018-11-25T15:08:07.294Z,80.13
2018-11-25T15:10:36.026Z,86.80
2018-11-25T15:13:05.167Z,86.80
2018-11-25T15:15:33.844Z,86.47
2018-11-25T15:18:02.466Z,79.10
2018-11-25T15:20:31.151Z,77.00
2018-11-25T15:23:02.479Z,84.93
2018-11-25T15:25:34.826Z,101.20
2018-11-25T15:28:03.448Z,85.63
2018-11-25T15:30:32.056Z,78.50
2018-11-25T15:33:00.710Z,77.97
2018-11-25T15:35:29.451Z,79.93
2018-11-25T15:37:58.443Z,84.67
2018-11-25T15:40:30.298Z,78.27
2018-11-25T15:42:59.194Z,83.80
2018-11-25T15:45:27.911Z,77.00
2018-11-25T15:48:08.767Z,81.13
2018-11-25T15:50:37.478Z,73.87
2018-11-25T15:53:07.824Z,80.03
2018-11-25T15:55:37.215Z,73.77
2018-11-25T15:58:06.325Z,81.00
2018-11-25T16:00:35.011Z,83.47
2018-11-25T16:03:03.771Z,72.77
2018-11-25T16:05:33.568Z,74.97
2018-11-25T16:08:02.602Z,83.60
2018-11-25T16:10:31.868Z,93.93
2018-11-25T16:13:00.527Z,87.73
2018-11-25T16:15:29.905Z,96.47
2018-11-25T16:17:58.645Z,99.20
2018-11-25T16:20:28.322Z,103.30
2018-11-25T16:23:01.432Z,163.87
2018-11-25T16:25:48.197Z,153.20
2018-11-25T16:28:21.209Z,156.03
2018-11-25T16:30:50.149Z,119.83
2018-11-25T16:33:18.842Z,143.67
2018-11-25T16:35:55.395Z,144.93
2018-11-25T16:38:24.114Z,143.67
2018-11-25T16:40:52.746Z,99.43
2018-11-25T16:43:22.327Z,73.73
2018-11-25T16:45:51.049Z,76.20
2018-11-25T16:48:19.700Z,68.47
2018-11-25T16:50:48.301Z,60.87
2018-11-25T16:53:17.124Z,60.97
2018-11-25T16:55:45.832Z,75.27
2018-11-25T16:58:14.570Z,79.40
2018-11-25T17:00:43.242Z,76.67
2018-11-25T17:03:11.887Z,82.10
2018-11-25T17:05:43.184Z,95.17
2018-11-25T17:08:17.121Z,85.83
2018-11-25T17:10:46.680Z,81.53
2018-11-25T17:13:15.354Z,65.03
2018-11-25T17:15:44.416Z,108.47
2018-11-25T17:18:13.061Z,87.97
2018-11-25T17:20:41.849Z,63.57
2018-11-25T17:23:10.487Z,55.43
2018-11-25T17:25:39.126Z,51.70
2018-11-25T17:28:08.144Z,56.70
2018-11-25T17:30:36.795Z,51.73
2018-11-25T17:33:05.821Z,53.50
2018-11-25T17:35:34.428Z,52.83
2018-11-25T17:38:03.099Z,55.63
2018-11-25T17:40:31.831Z,59.27
2018-11-25T17:43:00.470Z,49.47
2018-11-25T17:45:29.503Z,43.47
2018-11-25T17:47:58.133Z,50.07
2018-11-25T17:50:28.866Z,50.07
2018-11-25T17:52:57.501Z,50.47
2018-11-25T17:55:27.874Z,56.43
2018-11-25T17:57:56.875Z,49.43
2018-11-25T18:00:34.429Z,51.67
2018-11-25T18:03:03.771Z,47.10
2018-11-25T18:05:38.712Z,52.80
2018-11-25T18:08:01.151Z,46.70
2018-11-25T18:10:29.796Z,40.63
2018-11-25T18:12:58.511Z,40.07
2018-11-25T18:15:27.199Z,39.50
2018-11-25T18:18:06.263Z,31.87
2018-11-25T18:20:46.054Z,31.70
2018-11-25T18:23:14.682Z,32.63
2018-11-25T18:25:43.485Z,32.47
2018-11-25T18:28:12.873Z,29.67
2018-11-25T18:30:42.653Z,29.93
2018-11-25T18:33:11.411Z,26.57
2018-11-25T18:35:40.098Z,27.87
2018-11-25T18:38:09.062Z,26.40
2018-11-25T18:40:37.683Z,28.97
2018-11-25T18:43:07.207Z,27.87
2018-11-25T18:45:35.897Z,32.80
2018-11-25T18:48:04.703Z,31.33
2018-11-25T18:50:34.182Z,28.80
2018-11-25T18:53:02.836Z,28.00
2018-11-25T18:55:30.226Z,26.27
2018-11-25T18:57:59.585Z,28.27
2018-11-25T19:01:06.963Z,29.73
2018-11-25T19:03:35.875Z,27.57
2018-11-25T19:06:04.626Z,29.43
2018-11-25T19:08:33.273Z,27.97
2018-11-25T19:11:02.379Z,28.43
2018-11-25T19:13:31.336Z,37.83
2018-11-25T19:15:59.979Z,35.20
2018-11-25T19:18:28.625Z,39.17
2018-11-25T19:20:57.325Z,40.60
2018-11-25T19:23:25.973Z,41.03
2018-11-25T19:25:54.621Z,39.20
2018-11-25T19:28:23.171Z,38.13
2018-11-25T19:30:52.265Z,36.67
2018-11-25T19:33:20.978Z,42.17
2018-11-25T19:35:49.646Z,37.90
2018-11-25T19:38:18.321Z,33.40
2018-11-25T19:40:47.009Z,26.77
2018-11-25T19:43:15.780Z,29.77
2018-11-25T19:45:44.528Z,28.53
2018-11-25T19:48:13.597Z,30.80
2018-11-25T19:50:42.262Z,41.57
2018-11-25T19:53:11.588Z,42.23
2018-11-25T19:55:41.208Z,38.87
2018-11-25T19:58:09.847Z,45.17
2018-11-25T20:00:38.665Z,39.73
2018-11-25T20:03:07.830Z,51.23
2018-11-25T20:05:37.524Z,43.43
2018-11-25T20:08:06.623Z,38.10
2018-11-25T20:10:35.276Z,37.53
2018-11-25T20:13:03.954Z,38.07
2018-11-25T20:15:32.607Z,32.97
2018-11-25T20:18:01.335Z,33.93
2018-11-25T20:20:29.994Z,31.93
2018-11-25T20:22:58.670Z,29.33
2018-11-25T20:25:27.319Z,29.43
2018-11-25T20:27:57.694Z,30.87
2018-11-25T20:30:28.282Z,30.90
2018-11-25T20:33:02.009Z,33.43
2018-11-25T20:35:30.807Z,33.37
2018-11-25T20:38:04.561Z,30.87
2018-11-25T20:40:33.363Z,36.03
2018-11-25T20:43:02.116Z,31.40
2018-11-25T20:45:38.972Z,33.80
2018-11-25T20:48:04.837Z,32.80
2018-11-25T20:50:33.585Z,31.53
2018-11-25T20:53:07.468Z,28.47
2018-11-25T20:55:36.596Z,31.60
2018-11-25T20:58:06.382Z,34.60
2018-11-25T21:00:35.075Z,33.13
2018-11-25T21:03:03.719Z,31.00
2018-11-25T21:05:32.375Z,30.07
2018-11-25T21:08:00.998Z,29.20
2018-11-25T21:10:29.637Z,33.83
2018-11-25T21:12:58.247Z,31.50
2018-11-25T21:15:26.876Z,32.43
2018-11-25T21:17:56.034Z,31.03
2018-11-25T21:20:25.887Z,29.37
2018-11-25T21:22:54.601Z,30.30
2018-11-25T21:25:24.667Z,29.03
2018-11-25T21:27:53.359Z,30.80
2018-11-25T21:30:24.260Z,27.20
2018-11-25T21:32:55.203Z,31.57
2018-11-25T21:35:23.881Z,28.77
2018-11-25T21:37:52.502Z,30.30
2018-11-25T21:40:22.528Z,32.63
2018-11-25T21:42:51.726Z,28.00
2018-11-25T21:45:21.093Z,29.77
2018-11-25T21:47:49.983Z,30.10
2018-11-25T21:50:24.685Z,28.37
2018-11-25T21:52:53.341Z,28.57
2018-11-25T21:55:22.243Z,29.50
2018-11-25T21:57:50.835Z,29.97
2018-11-25T22:00:22.235Z,27.67
2018-11-25T22:02:50.970Z,31.03
2018-11-25T22:05:20.118Z,32.87
2018-11-25T22:07:48.655Z,31.43
2018-11-25T22:10:18.531Z,32.40
2018-11-25T22:12:47.496Z,33.33
2018-11-25T22:15:18.099Z,32.57
2018-11-25T22:17:46.823Z,29.90
2018-11-25T22:20:16.118Z,33.10
2018-11-25T22:22:44.834Z,34.90
2018-11-25T22:25:14.543Z,31.63
2018-11-25T22:27:43.338Z,34.50
2018-11-25T22:30:22.026Z,32.53
2018-11-25T22:32:50.834Z,31.63
2018-11-25T22:35:20.727Z,32.77
2018-11-25T22:37:49.449Z,30.00
2018-11-25T22:40:18.894Z,28.77
2018-11-25T22:42:48.444Z,34.53
2018-11-25T22:45:18.077Z,34.47
2018-11-25T22:47:46.728Z,30.63
2018-11-25T22:50:16.619Z,36.43
2018-11-25T22:52:45.433Z,33.13
2018-11-25T22:55:15.885Z,33.57
2018-11-25T22:57:44.623Z,33.57
2018-11-25T23:00:23.757Z,35.63
2018-11-25T23:02:52.434Z,35.17
2018-11-25T23:05:32.602Z,37.53
2018-11-25T23:08:01.315Z,34.67
2018-11-25T23:10:29.994Z,35.77
2018-11-25T23:12:58.679Z,36.90
2018-11-25T23:15:27.448Z,34.83
2018-11-25T23:17:56.125Z,35.73
2018-11-25T23:20:24.755Z,31.70
2018-11-25T23:22:53.355Z,36.80
2018-11-25T23:25:22.105Z,34.00
2018-11-25T23:27:50.804Z,28.50
2018-11-25T23:30:19.628Z,31.10
2018-11-25T23:32:48.454Z,28.83
2018-11-25T23:35:19.702Z,30.90
2018-11-25T23:37:48.460Z,32.50
2018-11-25T23:40:17.204Z,34.23
2018-11-25T23:42:46.574Z,30.23
2018-11-25T23:45:16.576Z,29.57
2018-11-25T23:47:46.126Z,29.23
2018-11-25T23:50:15.426Z,30.93
2018-11-25T23:52:45.897Z,31.73
2018-11-25T23:55:15.149Z,31.83
2018-11-25T23:57:43.938Z,32.67
